Time;durP1;ratioP1;P1;durP2;ratioP2;P2;SDS_P1;SDS_P2;PMS_P1;PMS_P2;Temp;Humidity;BMP_temperature;BMP_pressure;BME280_temperature;BME280_humidity;BME280_pressure;Samples;Min_cycle;Max_cycle;Signal;HPM_P1;HPM_P2
2023/07/08 00:01:14;;;;;;;3.33;3.05;;;;;;;;;;4736552;30;20132;-77
2023/07/08 00:03:41;;;;;;;3.40;3.10;;;;;;;;;;4734050;30;20488;-75
2023/07/08 00:06:17;;;;;;;2.92;2.72;;;;;;;;;;4742841;30;20126;-75
2023/07/08 00:08:45;;;;;;;3.35;3.15;;;;;;;;;;4739894;30;20048;-75
2023/07/08 00:11:14;;;;;;;3.58;3.28;;;;;;;;;;4742009;30;21860;-75
2023/07/08 00:13:41;;;;;;;3.17;2.97;;;;;;;;;;4741211;30;20048;-75
2023/07/08 00:16:10;;;;;;;3.10;2.90;;;;;;;;;;4742365;30;20500;-76
2023/07/08 00:18:38;;;;;;;3.45;3.15;;;;;;;;;;4733706;30;20056;-76
2023/07/08 00:21:10;;;;;;;2.90;2.70;;;;;;;;;;4736206;30;20083;-76
2023/07/08 00:23:37;;;;;;;3.67;3.38;;;;;;;;;;4739762;30;20052;-75
2023/07/08 00:26:09;;;;;;;3.17;2.92;;;;;;;;;;4743093;30;20118;-77
2023/07/08 00:28:37;;;;;;;3.10;2.90;;;;;;;;;;4739327;30;20056;-76
2023/07/08 00:31:08;;;;;;;2.90;2.70;;;;;;;;;;4739980;30;20123;-75
2023/07/08 00:33:36;;;;;;;2.95;2.75;;;;;;;;;;4736062;30;20137;-75
2023/07/08 00:36:09;;;;;;;3.22;3.03;;;;;;;;;;4736982;30;20048;-76
2023/07/08 00:38:36;;;;;;;3.08;2.88;;;;;;;;;;4741982;30;20068;-76
2023/07/08 00:41:10;;;;;;;3.33;2.92;;;;;;;;;;4734455;30;20578;-77
2023/07/08 00:43:46;;;;;;;2.97;2.78;;;;;;;;;;4733809;30;20094;-77
2023/07/08 00:46:13;;;;;;;3.00;2.80;;;;;;;;;;4742731;30;20063;-77
2023/07/08 00:48:41;;;;;;;3.25;3.05;;;;;;;;;;4729465;30;20060;-75
2023/07/08 00:51:12;;;;;;;3.40;2.80;;;;;;;;;;4733462;30;20084;-76
2023/07/08 00:53:41;;;;;;;3.50;3.28;;;;;;;;;;4735765;30;20132;-77
2023/07/08 00:56:26;;;;;;;3.88;3.58;;;;;;;;;;4739082;30;20620;-75
2023/07/08 00:58:53;;;;;;;3.47;3.00;;;;;;;;;;4731266;30;20067;-76
2023/07/08 01:01:21;;;;;;;3.22;2.92;;;;;;;;;;4732967;30;20060;-77
2023/07/08 01:04:01;;;;;;;3.40;3.10;;;;;;;;;;4746586;30;20067;-75
2023/07/08 01:06:31;;;;;;;4.70;3.35;;;;;;;;;;4740722;30;20492;-75
2023/07/08 01:09:02;;;;;;;4.00;3.50;;;;;;;;;;4743495;30;20516;-75
2023/07/08 01:11:30;;;;;;;3.45;3.15;;;;;;;;;;4744418;30;20052;-76
2023/07/08 01:13:58;;;;;;;3.33;3.03;;;;;;;;;;4745671;30;20064;-77
2023/07/08 01:16:25;;;;;;;3.53;3.22;;;;;;;;;;4739488;30;20123;-77
2023/07/08 01:18:53;;;;;;;3.28;3.00;;;;;;;;;;4740701;30;20080;-76
2023/07/08 01:21:30;;;;;;;3.60;3.20;;;;;;;;;;4746755;30;20068;-76
2023/07/08 01:23:58;;;;;;;3.35;3.05;;;;;;;;;;4740232;30;20144;-75
2023/07/08 01:26:26;;;;;;;4.25;3.17;;;;;;;;;;4736898;30;20076;-77
2023/07/08 01:28:55;;;;;;;3.50;3.20;;;;;;;;;;4736979;30;20060;-77
2023/07/08 01:31:23;;;;;;;3.20;3.00;;;;;;;;;;4732016;30;20059;-75
2023/07/08 01:33:53;;;;;;;3.67;3.10;;;;;;;;;;4746735;30;20052;-74
2023/07/08 01:36:22;;;;;;;4.40;4.00;;;;;;;;;;4743723;30;20110;-75
2023/07/08 01:38:52;;;;;;;3.65;3.35;;;;;;;;;;4738681;30;20062;-74
2023/07/08 01:41:20;;;;;;;3.72;3.30;;;;;;;;;;4738428;30;20084;-76
2023/07/08 01:43:47;;;;;;;3.50;3.22;;;;;;;;;;4753535;30;20204;-74
2023/07/08 01:46:17;;;;;;;3.38;3.00;;;;;;;;;;4729370;30;20129;-74
2023/07/08 01:48:47;;;;;;;3.45;3.25;;;;;;;;;;4756719;30;20056;-74
2023/07/08 01:51:14;;;;;;;3.70;3.25;;;;;;;;;;4729076;30;20516;-76
2023/07/08 01:53:44;;;;;;;3.72;3.42;;;;;;;;;;4741251;30;20055;-76
2023/07/08 01:56:12;;;;;;;4.05;3.17;;;;;;;;;;4738183;30;20055;-74
2023/07/08 01:58:40;;;;;;;3.85;2.95;;;;;;;;;;4746113;30;20052;-75
2023/07/08 02:01:08;;;;;;;3.50;3.20;;;;;;;;;;4739579;30;20052;-76
2023/07/08 02:03:39;;;;;;;3.65;3.35;;;;;;;;;;4745952;30;20066;-75
2023/07/08 02:06:11;;;;;;;3.33;3.05;;;;;;;;;;4744920;30;20078;-76
2023/07/08 02:08:46;;;;;;;3.40;3.10;;;;;;;;;;4732900;30;20495;-76
2023/07/08 02:11:13;;;;;;;3.50;3.20;;;;;;;;;;4747307;30;20063;-76
2023/07/08 02:13:41;;;;;;;3.22;2.97;;;;;;;;;;4744829;30;20048;-76
2023/07/08 02:16:08;;;;;;;3.08;2.88;;;;;;;;;;4745693;30;20044;-77
2023/07/08 02:18:36;;;;;;;3.67;3.38;;;;;;;;;;4739001;30;20056;-76
2023/07/08 02:21:04;;;;;;;3.53;3.33;;;;;;;;;;4746959;30;20533;-76
2023/07/08 02:23:31;;;;;;;3.17;2.97;;;;;;;;;;4741829;30;20060;-76
2023/07/08 02:25:59;;;;;;;3.10;2.90;;;;;;;;;;4739613;30;20056;-77
2023/07/08 02:28:26;;;;;;;3.38;3.08;;;;;;;;;;4742712;30;20063;-77
2023/07/08 02:30:54;;;;;;;3.35;3.08;;;;;;;;;;4747382;30;20110;-76
2023/07/08 02:33:27;;;;;;;3.05;2.85;;;;;;;;;;4742837;30;20078;-77
2023/07/08 02:35:55;;;;;;;3.70;3.40;;;;;;;;;;4742874;30;20147;-75
2023/07/08 02:38:22;;;;;;;3.70;3.40;;;;;;;;;;4744140;30;20060;-75
2023/07/08 02:40:49;;;;;;;3.53;3.25;;;;;;;;;;4747175;30;20056;-77
2023/07/08 02:43:17;;;;;;;3.72;3.25;;;;;;;;;;4734492;30;20068;-76
2023/07/08 02:45:44;;;;;;;3.45;3.15;;;;;;;;;;4743853;30;20144;-76
2023/07/08 02:48:12;;;;;;;4.22;3.78;;;;;;;;;;4742403;30;20685;-78
2023/07/08 02:50:39;;;;;;;3.83;3.53;;;;;;;;;;4739861;30;20056;-76
2023/07/08 02:53:06;;;;;;;3.70;3.40;;;;;;;;;;4741099;30;20056;-76
2023/07/08 02:55:35;;;;;;;3.60;3.30;;;;;;;;;;4743798;30;20512;-76
2023/07/08 02:58:02;;;;;;;3.80;3.50;;;;;;;;;;4740013;30;20057;-75
2023/07/08 03:00:29;;;;;;;4.07;3.67;;;;;;;;;;4747078;30;20520;-76
2023/07/08 03:02:57;;;;;;;4.15;3.55;;;;;;;;;;4739169;30;20135;-77
2023/07/08 03:05:24;;;;;;;4.10;3.70;;;;;;;;;;4739242;24;20153;-76
2023/07/08 03:07:52;;;;;;;4.00;3.70;;;;;;;;;;4727005;30;20140;-76
2023/07/08 03:10:19;;;;;;;4.80;3.85;;;;;;;;;;4728642;30;20056;-76
2023/07/08 03:12:47;;;;;;;4.80;3.90;;;;;;;;;;4726739;30;20057;-76
2023/07/08 03:15:14;;;;;;;4.47;4.07;;;;;;;;;;4729537;30;20427;-76
2023/07/08 03:17:43;;;;;;;4.72;4.32;;;;;;;;;;4722392;30;20103;-76
2023/07/08 03:20:11;;;;;;;5.00;4.50;;;;;;;;;;4727147;30;20662;-77
2023/07/08 03:22:38;;;;;;;5.00;4.47;;;;;;;;;;4728191;30;20071;-75
2023/07/08 03:25:06;;;;;;;4.53;4.13;;;;;;;;;;4726001;30;20055;-77
2023/07/08 03:27:34;;;;;;;6.72;4.53;;;;;;;;;;4728910;30;20064;-76
2023/07/08 03:30:01;;;;;;;5.38;4.65;;;;;;;;;;4727016;30;20045;-76
2023/07/08 03:32:30;;;;;;;4.97;4.28;;;;;;;;;;4725596;30;20061;-75
2023/07/08 03:34:58;;;;;;;6.65;4.93;;;;;;;;;;4716515;30;20056;-76
2023/07/08 03:37:25;;;;;;;5.43;4.30;;;;;;;;;;4723225;30;20522;-75
2023/07/08 03:39:53;;;;;;;6.18;5.13;;;;;;;;;;4721234;30;20391;-76
2023/07/08 03:42:20;;;;;;;5.60;5.00;;;;;;;;;;4724345;30;20508;-76
2023/07/08 03:44:48;;;;;;;6.90;4.68;;;;;;;;;;4721325;30;20053;-77
2023/07/08 03:47:17;;;;;;;6.45;5.00;;;;;;;;;;4728207;30;20418;-75
2023/07/08 03:49:44;;;;;;;5.70;4.90;;;;;;;;;;4722813;30;20053;-75
2023/07/08 03:52:15;;;;;;;5.35;4.68;;;;;;;;;;4725393;30;20072;-75
2023/07/08 03:54:43;;;;;;;5.78;5.18;;;;;;;;;;4725677;30;20424;-75
2023/07/08 03:57:10;;;;;;;6.80;4.93;;;;;;;;;;4726118;30;20052;-76
2023/07/08 03:59:38;;;;;;;5.57;5.07;;;;;;;;;;4726426;30;20073;-77
2023/07/08 04:02:06;;;;;;;5.25;4.75;;;;;;;;;;4720600;30;20049;-76
2023/07/08 04:04:35;;;;;;;5.40;4.88;;;;;;;;;;4720431;30;20059;-76
2023/07/08 04:07:02;;;;;;;6.63;4.63;;;;;;;;;;4725501;30;20068;-75
2023/07/08 04:09:30;;;;;;;5.57;4.85;;;;;;;;;;4740378;30;20064;-77
2023/07/08 04:12:00;;;;;;;5.28;4.63;;;;;;;;;;4727745;30;20048;-75
2023/07/08 04:14:28;;;;;;;5.75;4.50;;;;;;;;;;4730339;30;20137;-75
2023/07/08 04:16:57;;;;;;;5.75;5.15;;;;;;;;;;4727593;30;20052;-75
2023/07/08 04:19:26;;;;;;;5.07;4.38;;;;;;;;;;4724793;30;20053;-76
2023/07/08 04:21:54;;;;;;;4.90;4.40;;;;;;;;;;4725410;30;20060;-75
2023/07/08 04:24:22;;;;;;;5.60;4.43;;;;;;;;;;4727300;30;20493;-75
2023/07/08 04:26:50;;;;;;;4.93;4.30;;;;;;;;;;4728551;30;20088;-75
2023/07/08 04:29:19;;;;;;;5.32;4.43;;;;;;;;;;4727878;30;20048;-75
2023/07/08 04:31:47;;;;;;;4.82;4.30;;;;;;;;;;4727197;30;20052;-76
2023/07/08 04:34:16;;;;;;;4.82;4.40;;;;;;;;;;4722645;30;20510;-75
2023/07/08 04:36:44;;;;;;;4.80;4.03;;;;;;;;;;4726892;30;20056;-76
2023/07/08 04:39:11;;;;;;;4.65;4.15;;;;;;;;;;4726503;30;20140;-77
2023/07/08 04:41:43;;;;;;;4.85;4.10;;;;;;;;;;4726949;30;20155;-75
2023/07/08 04:44:12;;;;;;;4.93;4.53;;;;;;;;;;4734674;30;20068;-75
2023/07/08 04:46:39;;;;;;;5.38;4.15;;;;;;;;;;4730051;30;20103;-78
2023/07/08 04:49:11;;;;;;;5.20;4.35;;;;;;;;;;4729550;30;20189;-75
2023/07/08 04:51:39;;;;;;;4.22;3.83;;;;;;;;;;4722135;30;20432;-76
2023/07/08 04:54:16;;;;;;;5.70;4.30;;;;;;;;;;4729011;30;20053;-78
2023/07/08 04:56:48;;;;;;;4.55;4.13;;;;;;;;;;4723665;30;20045;-76
2023/07/08 04:59:17;;;;;;;4.38;3.97;;;;;;;;;;4724265;30;20076;-76
2023/07/08 05:01:45;;;;;;;3.83;3.53;;;;;;;;;;4720819;30;20064;-77
2023/07/08 05:04:17;;;;;;;4.05;3.72;;;;;;;;;;4720706;30;20536;-76
2023/07/08 05:06:45;;;;;;;3.92;3.63;;;;;;;;;;4725980;30;20095;-77
2023/07/08 05:09:15;;;;;;;4.13;3.78;;;;;;;;;;4724057;30;20049;-75
2023/07/08 05:11:44;;;;;;;;;;;;;;;;;;4734412;30;20055;-76
2023/07/08 05:14:12;;;;;;;3.88;3.58;;;;;;;;;;4722405;30;19941;-76
2023/07/08 05:16:40;;;;;;;3.90;3.53;;;;;;;;;;4723029;30;20052;-75
2023/07/08 05:19:08;;;;;;;4.00;3.70;;;;;;;;;;4727579;30;20056;-75
2023/07/08 05:21:36;;;;;;;4.32;4.00;;;;;;;;;;4728844;30;20542;-76
2023/07/08 05:24:04;;;;;;;4.35;4.05;;;;;;;;;;4726459;30;20069;-77
2023/07/08 05:26:32;;;;;;;4.07;3.78;;;;;;;;;;4730166;30;20519;-76
2023/07/08 05:29:00;;;;;;;3.90;3.60;;;;;;;;;;4726928;30;20504;-76
2023/07/08 05:31:28;;;;;;;4.35;4.00;;;;;;;;;;4724511;30;20486;-77
2023/07/08 05:34:13;;;;;;;3.97;3.72;;;;;;;;;;4726477;30;20088;-76
2023/07/08 05:36:40;;;;;;;3.90;3.60;;;;;;;;;;4727737;30;20060;-76
2023/07/08 05:39:08;;;;;;;3.88;3.55;;;;;;;;;;4723921;30;20060;-77
2023/07/08 05:41:35;;;;;;;4.20;3.90;;;;;;;;;;4728096;30;20056;-77
2023/07/08 05:44:03;;;;;;;4.53;3.47;;;;;;;;;;4725285;30;20133;-76
2023/07/08 05:46:30;;;;;;;4.53;4.13;;;;;;;;;;4728368;30;20064;-77
2023/07/08 05:48:59;;;;;;;5.47;4.20;;;;;;;;;;4725982;30;20057;-77
2023/07/08 05:51:28;;;;;;;4.03;3.63;;;;;;;;;;4730476;30;20052;-77
2023/07/08 05:53:56;;;;;;;4.28;3.88;;;;;;;;;;4733396;30;20141;-77
2023/07/08 05:56:23;;;;;;;3.95;3.63;;;;;;;;;;4725115;30;20048;-77
2023/07/08 05:58:50;;;;;;;4.25;3.78;;;;;;;;;;4725739;30;20057;-76
2023/07/08 06:01:19;;;;;;;3.90;3.60;;;;;;;;;;4725517;30;20465;-77
2023/07/08 06:03:47;;;;;;;4.28;3.88;;;;;;;;;;4721749;30;20076;-78
2023/07/08 06:06:15;;;;;;;6.60;3.70;;;;;;;;;;4722919;30;20082;-76
2023/07/08 06:08:42;;;;;;;3.95;3.65;;;;;;;;;;4725193;30;20049;-76
2023/07/08 06:11:09;;;;;;;3.47;3.17;;;;;;;;;;4722554;30;20040;-77
2023/07/08 06:13:37;;;;;;;3.70;3.35;;;;;;;;;;4721933;30;20071;-77
2023/07/08 06:16:04;;;;;;;3.55;3.25;;;;;;;;;;4723344;30;20068;-77
2023/07/08 06:18:32;;;;;;;4.20;3.55;;;;;;;;;;4718420;30;20145;-77
2023/07/08 06:21:01;;;;;;;3.90;3.53;;;;;;;;;;4721643;30;20416;-77
2023/07/08 06:23:29;;;;;;;4.70;3.55;;;;;;;;;;4725840;30;20056;-77
2023/07/08 06:25:56;;;;;;;3.88;3.58;;;;;;;;;;4724272;30;20045;-77
2023/07/08 06:28:24;;;;;;;3.75;3.45;;;;;;;;;;4718827;30;20088;-78
2023/07/08 06:30:51;;;;;;;3.75;3.38;;;;;;;;;;4718385;30;20052;-79
2023/07/08 06:33:19;;;;;;;3.72;3.33;;;;;;;;;;4715915;30;20049;-77
2023/07/08 06:35:46;;;;;;;3.65;3.35;;;;;;;;;;4721340;30;20520;-79
2023/07/08 06:38:14;;;;;;;3.05;2.85;;;;;;;;;;4719172;30;21168;-77
2023/07/08 06:40:41;;;;;;;3.72;3.53;;;;;;;;;;4726007;30;20060;-77
2023/07/08 06:43:09;;;;;;;4.00;3.60;;;;;;;;;;4724506;30;20059;-76
2023/07/08 06:45:54;;;;;;;3.83;3.53;;;;;;;;;;4715893;30;20049;-78
2023/07/08 06:48:24;;;;;;;5.13;3.20;;;;;;;;;;4724302;30;20070;-79
2023/07/08 06:50:51;;;;;;;3.28;3.03;;;;;;;;;;4725483;30;20080;-76
2023/07/08 06:53:19;;;;;;;2.85;2.58;;;;;;;;;;4723087;30;20181;-75
2023/07/08 06:55:47;;;;;;;3.10;2.90;;;;;;;;;;4725821;30;20052;-76
2023/07/08 06:58:14;;;;;;;2.90;2.70;;;;;;;;;;4716948;30;20193;-78
2023/07/08 07:00:42;;;;;;;3.08;2.78;;;;;;;;;;4712609;30;20512;-76
2023/07/08 07:03:11;;;;;;;3.05;2.83;;;;;;;;;;4727510;30;20039;-77
2023/07/08 07:05:40;;;;;;;2.70;2.58;;;;;;;;;;4721908;30;20087;-78
2023/07/08 07:08:07;;;;;;;2.63;2.42;;;;;;;;;;4730230;30;20068;-77
2023/07/08 07:10:35;;;;;;;2.40;2.20;;;;;;;;;;4732374;30;20118;-76
2023/07/08 07:13:04;;;;;;;2.50;2.30;;;;;;;;;;4724015;30;20055;-76
2023/07/08 07:15:32;;;;;;;2.80;2.60;;;;;;;;;;4727357;30;20056;-77
2023/07/08 07:18:00;;;;;;;3.45;2.90;;;;;;;;;;4718850;30;20761;-76
2023/07/08 07:20:29;;;;;;;2.45;2.30;;;;;;;;;;4719205;30;20192;-76
2023/07/08 07:22:56;;;;;;;2.72;2.55;;;;;;;;;;4719663;30;20049;-76
2023/07/08 07:25:24;;;;;;;2.95;2.75;;;;;;;;;;4722326;30;20103;-76
2023/07/08 07:27:51;;;;;;;2.53;2.33;;;;;;;;;;4717264;30;20057;-78
2023/07/08 07:30:19;;;;;;;2.78;2.58;;;;;;;;;;4713598;30;20072;-77
2023/07/08 07:32:46;;;;;;;2.97;2.78;;;;;;;;;;4712391;30;20057;-78
2023/07/08 07:35:14;;;;;;;3.08;2.60;;;;;;;;;;4729865;30;20056;-79
2023/07/08 07:37:43;;;;;;;2.60;2.40;;;;;;;;;;4718307;30;20493;-77
2023/07/08 07:40:13;;;;;;;3.40;3.10;;;;;;;;;;4724159;30;20384;-79
2023/07/08 07:42:41;;;;;;;2.58;2.38;;;;;;;;;;4730241;30;20538;-78
2023/07/08 07:45:09;;;;;;;2.60;2.40;;;;;;;;;;4722425;30;20076;-76
2023/07/08 07:47:37;;;;;;;2.90;2.70;;;;;;;;;;4713949;30;20073;-77
2023/07/08 07:50:06;;;;;;;2.97;2.78;;;;;;;;;;4723236;30;20111;-77
2023/07/08 07:52:34;;;;;;;3.60;2.33;;;;;;;;;;4728564;30;20099;-79
2023/07/08 07:55:03;;;;;;;2.72;2.53;;;;;;;;;;4720632;30;20151;-79
2023/07/08 07:57:30;;;;;;;3.03;2.83;;;;;;;;;;4723298;30;20062;-77
2023/07/08 07:59:58;;;;;;;2.50;2.28;;;;;;;;;;4726014;30;20044;-76
2023/07/08 08:02:25;;;;;;;2.80;2.60;;;;;;;;;;4727001;30;20069;-78
2023/07/08 08:04:53;;;;;;;2.17;2.08;;;;;;;;;;4723055;30;20421;-76
2023/07/08 08:07:21;;;;;;;2.53;2.30;;;;;;;;;;4726627;30;20055;-77
2023/07/08 08:09:48;;;;;;;2.97;2.70;;;;;;;;;;4728292;30;20263;-77
2023/07/08 08:12:16;;;;;;;2.75;2.55;;;;;;;;;;4727568;30;20449;-76
2023/07/08 08:14:43;;;;;;;3.28;2.90;;;;;;;;;;4730911;30;20059;-76
2023/07/08 08:17:11;;;;;;;2.75;2.58;;;;;;;;;;4726639;30;20063;-78
2023/07/08 08:19:38;;;;;;;2.63;2.42;;;;;;;;;;4727912;30;20049;-76
2023/07/08 08:22:06;;;;;;;2.60;2.35;;;;;;;;;;4727241;30;20052;-76
2023/07/08 08:24:34;;;;;;;2.80;2.60;;;;;;;;;;4727772;30;20060;-78
2023/07/08 08:27:02;;;;;;;2.30;2.20;;;;;;;;;;4727893;30;20075;-76
2023/07/08 08:29:30;;;;;;;2.67;2.47;;;;;;;;;;4726749;30;20059;-77
2023/07/08 08:31:57;;;;;;;1.95;1.85;;;;;;;;;;4725650;30;20504;-80
2023/07/08 08:34:25;;;;;;;2.90;2.33;;;;;;;;;;4709998;30;20049;-76
2023/07/08 08:36:55;;;;;;;2.47;2.28;;;;;;;;;;4727309;30;20424;-77
2023/07/08 08:39:26;;;;;;;2.60;2.38;;;;;;;;;;4721269;30;20056;-76
2023/07/08 08:41:54;;;;;;;2.20;2.03;;;;;;;;;;4722797;30;20097;-76
2023/07/08 08:44:26;;;;;;;2.40;2.30;;;;;;;;;;4725081;30;20049;-77
2023/07/08 08:47:13;;;;;;;2.60;2.40;;;;;;;;;;4726469;30;20136;-79
2023/07/08 08:49:44;;;;;;;2.28;2.10;;;;;;;;;;4721420;30;20065;-78
2023/07/08 08:52:11;;;;;;;2.20;2.10;;;;;;;;;;4727829;30;20048;-77
2023/07/08 08:54:39;;;;;;;2.15;2.05;;;;;;;;;;4739395;30;20508;-79
2023/07/08 08:57:25;;;;;;;2.92;2.35;;;;;;;;;;4724804;30;20049;-78
2023/07/08 08:59:57;;;;;;;2.70;2.50;;;;;;;;;;4728019;30;20139;-78
2023/07/08 09:02:41;;;;;;;2.40;2.30;;;;;;;;;;4727305;30;20052;-77
2023/07/08 09:05:10;;;;;;;2.53;2.33;;;;;;;;;;4782335;24;20059;-78
2023/07/08 09:08:01;;;;;;;2.70;2.50;;;;;;;;;;4725417;30;20060;-79
2023/07/08 09:10:46;;;;;;;2.50;2.40;;;;;;;;;;4728483;30;20429;-79
2023/07/08 09:13:26;;;;;;;2.33;2.17;;;;;;;;;;4711880;30;20279;-79
2023/07/08 09:16:02;;;;;;;1.90;1.80;;;;;;;;;;4710532;30;20053;-78
2023/07/08 09:18:33;;;;;;;2.67;2.47;;;;;;;;;;4708550;30;20137;-79
2023/07/08 09:21:02;;;;;;;3.80;2.20;;;;;;;;;;4709527;30;20057;-77
2023/07/08 09:23:33;;;;;;;2.40;2.30;;;;;;;;;;4703838;30;20068;-79
2023/07/08 09:26:05;;;;;;;2.42;2.22;;;;;;;;;;4707571;30;20057;-78
2023/07/08 09:28:37;;;;;;;2.05;1.95;;;;;;;;;;4701495;30;20162;-79
2023/07/08 09:31:06;;;;;;;1.98;1.88;;;;;;;;;;4703183;30;20064;-79
2023/07/08 09:33:34;;;;;;;2.15;2.05;;;;;;;;;;4700612;30;20709;-79
2023/07/08 09:36:03;;;;;;;2.30;2.20;;;;;;;;;;4705927;30;20053;-78
2023/07/08 09:38:34;;;;;;;2.67;2.30;;;;;;;;;;4710291;30;20052;-78
2023/07/08 09:41:01;;;;;;;1.77;1.67;;;;;;;;;;4712225;30;20356;-79
2023/07/08 09:43:38;;;;;;;2.30;2.20;;;;;;;;;;4713122;30;20122;-78
2023/07/08 09:46:11;;;;;;;2.30;2.10;;;;;;;;;;4727069;30;20092;-78
2023/07/08 09:48:39;;;;;;;2.60;2.50;;;;;;;;;;4707000;30;20556;-78
2023/07/08 09:51:08;;;;;;;3.22;2.60;;;;;;;;;;4713460;30;20085;-79
2023/07/08 09:53:35;;;;;;;2.20;2.10;;;;;;;;;;4713360;30;20061;-79
2023/07/08 09:56:03;;;;;;;2.20;2.10;;;;;;;;;;4715958;30;20417;-78
2023/07/08 09:58:36;;;;;;;2.75;2.50;;;;;;;;;;4714906;30;20131;-78
2023/07/08 10:01:12;;;;;;;3.05;2.40;;;;;;;;;;4705574;30;20067;-79
2023/07/08 10:03:39;;;;;;;2.17;2.08;;;;;;;;;;4706732;30;20064;-77
2023/07/08 10:06:21;;;;;;;2.75;2.55;;;;;;;;;;4708482;30;20060;-78
2023/07/08 10:08:54;;;;;;;2.50;2.10;;;;;;;;;;4712772;30;20144;-79
2023/07/08 10:11:38;;;;;;;2.35;2.20;;;;;;;;;;4711548;30;20415;-79
2023/07/08 10:14:09;;;;;;;2.25;2.05;;;;;;;;;;4706261;30;20502;-78
2023/07/08 10:16:42;;;;;;;2.20;2.10;;;;;;;;;;4712446;30;20055;-79
2023/07/08 10:19:13;;;;;;;1.92;1.83;;;;;;;;;;4709852;30;20103;-79
2023/07/08 10:21:48;;;;;;;2.20;2.10;;;;;;;;;;4712499;30;20543;-78
2023/07/08 10:24:22;;;;;;;2.30;2.10;;;;;;;;;;4703150;30;20067;-78
2023/07/08 10:27:00;;;;;;;2.60;2.40;;;;;;;;;;4702956;30;20131;-78
2023/07/08 10:29:49;;;;;;;1.98;1.88;;;;;;;;;;4707633;30;20082;-79
2023/07/08 10:32:32;;;;;;;2.10;1.90;;;;;;;;;;4702817;30;20068;-78
2023/07/08 10:35:00;;;;;;;2.80;2.60;;;;;;;;;;4706161;30;20092;-78
2023/07/08 10:37:37;;;;;;;2.42;2.30;;;;;;;;;;4709889;30;20059;-78
2023/07/08 10:40:19;;;;;;;2.42;2.33;;;;;;;;;;4710477;30;20430;-78
2023/07/08 10:42:57;;;;;;;2.72;2.53;;;;;;;;;;4706811;30;20053;-78
2023/07/08 10:45:32;;;;;;;3.00;2.78;;;;;;;;;;4714720;30;20451;-78
2023/07/08 10:48:00;;;;;;;2.70;2.42;;;;;;;;;;4716409;30;20049;-79
2023/07/08 10:50:48;;;;;;;2.35;2.20;;;;;;;;;;4711431;30;20061;-79
2023/07/08 10:53:15;;;;;;;2.22;2.13;;;;;;;;;;4713328;30;20061;-79
2023/07/08 10:55:46;;;;;;;2.55;2.40;;;;;;;;;;4713411;30;20056;-79
2023/07/08 10:58:16;;;;;;;3.55;3.28;;;;;;;;;;4715183;30;20088;-80
2023/07/08 11:00:49;;;;;;;2.35;2.25;;;;;;;;;;4715131;30;20061;-79
2023/07/08 11:03:35;;;;;;;2.40;2.30;;;;;;;;;;4712126;30;20122;-79
2023/07/08 11:06:21;;;;;;;2.53;2.33;;;;;;;;;;4708309;30;20432;-80
2023/07/08 11:08:52;;;;;;;2.40;2.20;;;;;;;;;;4710094;30;20531;-79
2023/07/08 11:11:38;;;;;;;2.80;2.60;;;;;;;;;;4707190;30;20127;-80
2023/07/08 11:14:15;;;;;;;2.90;2.35;;;;;;;;;;4714672;30;20056;-80
2023/07/08 11:16:52;;;;;;;2.83;2.63;;;;;;;;;;4715948;30;20079;-79
2023/07/08 11:19:23;;;;;;;2.72;2.25;;;;;;;;;;4713147;30;20081;-79
2023/07/08 11:21:52;;;;;;;2.22;2.13;;;;;;;;;;4714696;30;20519;-79
2023/07/08 11:24:23;;;;;;;2.50;2.40;;;;;;;;;;4717299;30;20050;-80
2023/07/08 11:26:53;;;;;;;2.47;2.33;;;;;;;;;;4713935;30;20077;-79
2023/07/08 11:29:30;;;;;;;2.33;2.22;;;;;;;;;;4716403;30;20056;-80
2023/07/08 11:31:59;;;;;;;2.80;2.60;;;;;;;;;;4710562;30;20050;-79
2023/07/08 11:34:28;;;;;;;2.45;2.35;;;;;;;;;;4708722;30;20083;-79
2023/07/08 11:36:56;;;;;;;2.25;2.15;;;;;;;;;;4711674;30;20481;-79
2023/07/08 11:39:43;;;;;;;2.20;2.10;;;;;;;;;;4709209;30;20084;-79
2023/07/08 11:42:19;;;;;;;2.60;2.40;;;;;;;;;;4712069;30;20049;-78
2023/07/08 11:44:57;;;;;;;2.28;2.17;;;;;;;;;;4708714;30;20144;-79
2023/07/08 11:47:45;;;;;;;2.78;2.58;;;;;;;;;;4703809;30;20237;-79
2023/07/08 11:50:19;;;;;;;2.33;2.10;;;;;;;;;;4708313;30;20056;-79
2023/07/08 11:53:00;;;;;;;2.40;2.25;;;;;;;;;;4712946;30;20045;-79
2023/07/08 11:55:28;;;;;;;;;;;;;;;;;;4703478;30;20418;-80
2023/07/08 11:58:00;;;;;;;6.40;2.03;;;;;;;;;;4704038;30;19935;-79
2023/07/08 12:00:34;;;;;;;2.10;2.00;;;;;;;;;;4708471;30;20636;-79
2023/07/08 12:03:18;;;;;;;2.30;2.20;;;;;;;;;;4710992;30;20067;-79
2023/07/08 12:05:46;;;;;;;2.20;2.00;;;;;;;;;;4705522;30;20466;-79
2023/07/08 12:08:14;;;;;;;2.35;2.25;;;;;;;;;;4708352;30;20532;-79
2023/07/08 12:10:47;;;;;;;2.30;2.10;;;;;;;;;;4706362;30;20056;-79
2023/07/08 12:13:18;;;;;;;2.15;2.05;;;;;;;;;;4709848;30;20149;-79
2023/07/08 12:15:45;;;;;;;5.35;2.40;;;;;;;;;;4702061;30;20045;-80
2023/07/08 12:18:19;;;;;;;2.35;2.25;;;;;;;;;;4706494;30;20048;-79
2023/07/08 12:20:50;;;;;;;2.30;2.17;;;;;;;;;;4704612;30;20133;-79
2023/07/08 12:23:21;;;;;;;2.38;2.17;;;;;;;;;;4706659;30;20502;-79
2023/07/08 12:25:50;;;;;;;2.58;2.33;;;;;;;;;;4710309;30;20087;-80
2023/07/08 12:28:17;;;;;;;2.30;2.20;;;;;;;;;;4705668;30;20057;-79
2023/07/08 12:30:45;;;;;;;2.30;2.20;;;;;;;;;;4708265;30;20513;-80
2023/07/08 12:33:33;;;;;;;2.17;2.08;;;;;;;;;;4707010;30;20142;-79
2023/07/08 12:36:02;;;;;;;2.38;2.28;;;;;;;;;;4698817;30;20394;-80
2023/07/08 12:38:32;;;;;;;2.30;2.20;;;;;;;;;;4709092;30;20100;-80
2023/07/08 12:41:01;;;;;;;3.27;2.60;;;;;;;;;;4706415;30;20045;-79
2023/07/08 12:43:29;;;;;;;3.13;2.22;;;;;;;;;;4710113;30;20107;-79
2023/07/08 12:45:56;;;;;;;2.38;2.17;;;;;;;;;;4712261;30;20057;-79
2023/07/08 12:48:25;;;;;;;2.13;2.03;;;;;;;;;;4710781;30;20513;-79
2023/07/08 12:50:52;;;;;;;4.13;2.20;;;;;;;;;;4721484;30;20057;-79
2023/07/08 12:53:20;;;;;;;2.17;2.08;;;;;;;;;;4710558;30;20315;-79
2023/07/08 12:55:47;;;;;;;2.35;2.25;;;;;;;;;;4708327;30;20045;-80
2023/07/08 12:58:20;;;;;;;2.30;2.20;;;;;;;;;;4708658;30;20509;-79
2023/07/08 13:00:48;;;;;;;2.33;2.20;;;;;;;;;;4709587;30;20492;-80
2023/07/08 13:03:17;;;;;;;2.50;2.30;;;;;;;;;;4707555;30;20132;-79
2023/07/08 13:05:45;;;;;;;2.20;2.10;;;;;;;;;;4708369;30;20061;-79
2023/07/08 13:08:17;;;;;;;2.28;2.13;;;;;;;;;;4705196;30;20544;-80
2023/07/08 13:10:46;;;;;;;2.55;2.22;;;;;;;;;;4705701;30;20053;-79
2023/07/08 13:13:20;;;;;;;2.08;1.98;;;;;;;;;;4703737;30;20057;-80
2023/07/08 13:15:49;;;;;;;2.47;2.10;;;;;;;;;;4707948;30;20097;-80
2023/07/08 13:18:22;;;;;;;2.10;1.98;;;;;;;;;;4704559;30;20136;-80
2023/07/08 13:20:51;;;;;;;2.40;2.20;;;;;;;;;;4707844;30;20061;-80
2023/07/08 13:23:21;;;;;;;2.00;1.90;;;;;;;;;;4707207;30;20068;-79
2023/07/08 13:25:52;;;;;;;2.97;2.53;;;;;;;;;;4709636;30;20319;-80
2023/07/08 13:28:20;;;;;;;2.50;2.40;;;;;;;;;;4702018;30;20504;-80
2023/07/08 13:30:54;;;;;;;2.58;2.38;;;;;;;;;;4710321;30;20516;-80
2023/07/08 13:33:22;;;;;;;2.50;2.30;;;;;;;;;;4704118;30;20126;-80
2023/07/08 13:35:51;;;;;;;2.53;2.33;;;;;;;;;;4708122;30;20120;-79
2023/07/08 13:38:21;;;;;;;2.30;2.17;;;;;;;;;;4716553;30;20053;-77
2023/07/08 13:40:49;;;;;;;2.50;2.30;;;;;;;;;;4723462;30;20065;-79
2023/07/08 13:43:23;;;;;;;3.33;2.38;;;;;;;;;;4719329;30;20087;-77
2023/07/08 13:45:51;;;;;;;2.70;2.50;;;;;;;;;;4723766;30;20497;-78
2023/07/08 13:48:25;;;;;;;2.30;2.20;;;;;;;;;;4722487;30;20523;-78
2023/07/08 13:50:58;;;;;;;2.40;2.30;;;;;;;;;;4720100;30;20059;-79
2023/07/08 13:53:41;;;;;;;3.42;2.33;;;;;;;;;;4718153;30;20080;-79
2023/07/08 13:56:12;;;;;;;2.58;2.47;;;;;;;;;;4724068;30;20060;-79
2023/07/08 13:58:43;;;;;;;2.35;2.25;;;;;;;;;;4724471;30;20134;-78
2023/07/08 14:01:18;;;;;;;3.55;2.28;;;;;;;;;;4724273;30;20084;-79
2023/07/08 14:03:50;;;;;;;2.60;2.40;;;;;;;;;;4718098;30;20196;-78
2023/07/08 14:06:29;;;;;;;2.60;2.40;;;;;;;;;;4721876;30;20064;-78
2023/07/08 14:09:09;;;;;;;2.30;2.20;;;;;;;;;;4722495;30;20067;-78
2023/07/08 14:11:36;;;;;;;2.47;2.38;;;;;;;;;;4716152;30;20045;-78
2023/07/08 14:14:04;;;;;;;3.42;2.38;;;;;;;;;;4724196;30;20151;-78
2023/07/08 14:16:33;;;;;;;2.28;2.17;;;;;;;;;;4723759;30;20049;-77
2023/07/08 14:19:03;;;;;;;2.17;2.08;;;;;;;;;;4724002;30;20052;-78
2023/07/08 14:21:31;;;;;;;2.75;2.50;;;;;;;;;;4703587;30;20582;-78
2023/07/08 14:23:58;;;;;;;2.40;2.30;;;;;;;;;;4720747;30;20088;-79
2023/07/08 14:26:26;;;;;;;2.42;2.22;;;;;;;;;;4722045;30;20489;-78
2023/07/08 14:28:53;;;;;;;2.10;2.00;;;;;;;;;;4738760;30;20057;-79
2023/07/08 14:31:26;;;;;;;2.42;2.33;;;;;;;;;;4725235;30;20057;-78
2023/07/08 14:33:58;;;;;;;2.45;2.33;;;;;;;;;;4724889;30;20103;-78
2023/07/08 14:36:26;;;;;;;2.25;2.15;;;;;;;;;;4724472;30;20049;-78
2023/07/08 14:38:53;;;;;;;2.20;2.10;;;;;;;;;;4725594;30;20049;-78
2023/07/08 14:41:21;;;;;;;1.85;1.75;;;;;;;;;;4733400;30;20060;-78
2023/07/08 14:43:48;;;;;;;2.20;2.10;;;;;;;;;;4724873;30;20528;-79
2023/07/08 14:46:16;;;;;;;2.40;2.30;;;;;;;;;;4725750;30;20052;-79
2023/07/08 14:48:44;;;;;;;2.45;1.90;;;;;;;;;;4723148;30;20053;-79
2023/07/08 14:51:11;;;;;;;2.15;2.05;;;;;;;;;;4724346;30;20117;-77
2023/07/08 14:53:39;;;;;;;2.20;2.10;;;;;;;;;;4724580;30;20772;-79
2023/07/08 14:56:12;;;;;;;2.47;2.30;;;;;;;;;;4734501;30;20125;-78
2023/07/08 14:58:41;;;;;;;2.20;2.10;;;;;;;;;;4716812;30;20103;-81
2023/07/08 15:01:12;;;;;;;2.35;2.13;;;;;;;;;;4706186;30;20060;-79